PATG

Details ICAO PATG (TOG)
Name TOGIAK
Region USA (Alaska)
Timezone Unknown (UTC+0.0)
Plans Departing 3
Arriving 4
Stats Elevation 21 ft / 6 m (AMSL)
Location 59.054237° -160.393610°
Runways 2
Magnetic Variation 11.862° E
Sunrise 2018-05-21 13:58:44 UTC / 2018-05-21 13:58:44 Local
Sunset 2018-05-22 07:20:31 UTC / 2018-05-22 07:20:31 Local
Advertisement - Login to hide

Runways

ID Width Length Bearing (true) Bearing (mag) Surface Threshold Offset Overrun Length
03 98 ft / 30 m 4,217 ft / 1,285 m 45.79° 33.93° Gravel 0 ft / 0 m 300 ft / 91 m
10 49 ft / 15 m 1,118 ft / 341 m 111.27° 99.41° Gravel 0 ft / 0 m 0 ft / 0 m
21 98 ft / 30 m 4,217 ft / 1,285 m 225.80° 213.94° Gravel 0 ft / 0 m 300 ft / 91 m
28 49 ft / 15 m 1,118 ft / 341 m 291.27° 279.41° Gravel 0 ft / 0 m 0 ft / 0 m

Map

Weather


0- 5 10 15 20 25 30 35+ Temperature / ° C

Clouds and Precipitation
Forecast for 2018-05-22 00:00 UTC. Updated 4 hours ago

Ground ~20,000 ft ~40,000 ft Winds

METAR

PATG 220156Z AUTO 31016G23KT 10SM CLR 14/06 A2945 RMK AO2 PK WND 32026/0135 SLP067 T01390056

TAF

Not found

Frequencies

Recorded 119.30 MHz AWOS 3
Unicom 122.50 MHz CTAF
Warning: Do not use this data for real-world aviation or navigation. No guarantee of current accuracy is given.